createdAt,value
2023-03-26T00:03:12.184Z,71.20
2023-03-26T00:08:16.602Z,70.75
2023-03-26T00:13:23.516Z,70.58
2023-03-26T00:18:30.332Z,70.36
2023-03-26T00:23:35.252Z,70.59
2023-03-26T00:28:38.468Z,70.79
2023-03-26T00:33:42.689Z,70.80
2023-03-26T00:38:47.186Z,70.56
2023-03-26T00:44:09.357Z,70.46
2023-03-26T00:49:14.840Z,70.33
2023-03-26T00:54:36.700Z,69.95
2023-03-26T00:59:39.463Z,69.72
2023-03-26T01:04:45.250Z,69.39
2023-03-26T01:09:50.493Z,69.39
2023-03-26T01:14:56.660Z,69.93
2023-03-26T01:20:26.817Z,70.06
2023-03-26T01:25:34.462Z,70.69
2023-03-26T01:30:42.693Z,70.30
2023-03-26T01:36:18.125Z,70.03
2023-03-26T01:41:45.138Z,70.26
2023-03-26T01:46:48.723Z,70.66
2023-03-26T01:51:51.348Z,70.87
2023-03-26T01:57:17.597Z,70.90
2023-03-26T02:02:42.859Z,71.01
2023-03-26T02:07:52.138Z,71.19
2023-03-26T02:12:54.799Z,71.50
2023-03-26T02:17:56.583Z,71.37
2023-03-26T02:22:59.956Z,71.34
2023-03-26T02:28:02.813Z,71.03
2023-03-26T02:33:04.880Z,70.75
2023-03-26T02:38:14.583Z,70.80
2023-03-26T02:43:17.072Z,71.14
2023-03-26T02:48:20.405Z,71.56
2023-03-26T02:53:30.915Z,72.07
2023-03-26T02:59:02.097Z,72.23
2023-03-26T03:04:04.531Z,72.51
2023-03-26T03:09:12.846Z,72.80
2023-03-26T03:14:35.020Z,73.00
2023-03-26T03:19:37.821Z,72.87
2023-03-26T03:24:39.990Z,72.23
2023-03-26T03:29:41.735Z,72.32
2023-03-26T03:35:18.979Z,72.72
2023-03-26T03:40:23.957Z,72.87
2023-03-26T03:45:26.936Z,72.81
2023-03-26T03:50:47.431Z,72.45
2023-03-26T03:56:02.000Z,72.20
2023-03-26T04:06:18.776Z,72.20
2023-03-26T04:11:23.947Z,72.31
2023-03-26T04:16:42.617Z,72.41
2023-03-26T04:21:44.644Z,72.16
2023-03-26T04:26:48.190Z,71.87
2023-03-26T04:31:58.670Z,71.85
2023-03-26T04:37:02.607Z,72.03
2023-03-26T04:42:12.044Z,71.90
2023-03-26T04:47:24.273Z,71.85
2023-03-26T04:52:26.379Z,71.66
2023-03-26T04:57:53.118Z,71.91
2023-03-26T05:03:15.791Z,72.26
2023-03-26T05:08:18.647Z,71.99
2023-03-26T05:13:20.862Z,71.91
2023-03-26T05:18:24.842Z,71.94
2023-03-26T05:23:27.964Z,72.09
2023-03-26T05:28:40.594Z,71.91
2023-03-26T05:34:11.575Z,71.37
2023-03-26T05:39:14.296Z,70.60
2023-03-26T05:50:07.650Z,70.34
2023-03-26T05:55:11.340Z,69.62
2023-03-26T06:00:43.348Z,69.48
2023-03-26T06:05:46.792Z,69.16
2023-03-26T06:11:04.588Z,68.76
2023-03-26T06:16:27.319Z,67.61
2023-03-26T06:21:50.498Z,66.68
2023-03-26T06:26:56.601Z,66.07
2023-03-26T06:32:06.407Z,65.49
2023-03-26T06:37:22.848Z,65.93
2023-03-26T06:43:06.689Z,65.67
2023-03-26T06:48:17.475Z,65.36
2023-03-26T06:53:30.962Z,64.98
2023-03-26T06:58:45.908Z,64.50
2023-03-26T07:04:06.190Z,64.10
2023-03-26T07:09:30.345Z,63.99
2023-03-26T07:14:55.941Z,64.16
2023-03-26T07:20:16.922Z,63.73
2023-03-26T07:25:20.503Z,63.09
2023-03-26T07:30:55.446Z,62.29
2023-03-26T07:36:29.585Z,61.36
2023-03-26T07:42:23.451Z,60.14
2023-03-26T07:47:45.238Z,59.61
2023-03-26T07:52:53.943Z,60.56
2023-03-26T07:59:03.597Z,60.72
2023-03-26T08:04:50.995Z,60.44
2023-03-26T08:11:07.536Z,61.17
2023-03-26T08:16:45.662Z,61.47
2023-03-26T08:22:02.176Z,61.19
2023-03-26T08:27:21.852Z,61.54
2023-03-26T08:32:25.436Z,60.24
2023-03-26T08:37:27.840Z,58.83
2023-03-26T08:42:45.333Z,58.61
2023-03-26T08:48:03.354Z,59.58
2023-03-26T08:53:17.657Z,60.25
2023-03-26T08:58:36.436Z,61.15
2023-03-26T09:04:03.091Z,61.70
2023-03-26T09:09:33.073Z,61.37
2023-03-26T09:14:53.164Z,61.38
2023-03-26T09:20:25.227Z,60.46
2023-03-26T09:25:51.729Z,62.79
2023-03-26T09:31:11.943Z,62.57
2023-03-26T09:36:32.122Z,62.58
2023-03-26T09:41:53.705Z,65.27
2023-03-26T09:47:07.454Z,66.59
2023-03-26T09:52:35.642Z,67.89
2023-03-26T09:57:59.305Z,68.78
2023-03-26T10:03:58.926Z,67.91
2023-03-26T10:09:29.785Z,67.06
2023-03-26T10:15:16.687Z,62.63
2023-03-26T10:20:43.113Z,58.54
2023-03-26T10:26:09.607Z,57.47
2023-03-26T10:31:47.354Z,59.61
2023-03-26T10:37:04.089Z,62.71
2023-03-26T10:42:38.574Z,62.80
2023-03-26T10:48:11.358Z,61.85
2023-03-26T10:53:33.517Z,59.03
2023-03-26T10:58:49.306Z,59.67
2023-03-26T11:04:14.231Z,57.58
2023-03-26T11:09:46.740Z,56.02
2023-03-26T11:15:03.858Z,56.93
2023-03-26T11:20:17.466Z,56.28
2023-03-26T11:25:51.402Z,55.64
2023-03-26T11:31:13.028Z,54.54
2023-03-26T11:36:22.822Z,52.45
2023-03-26T11:41:27.565Z,52.66
2023-03-26T11:46:40.005Z,51.68
2023-03-26T11:51:43.883Z,51.91
2023-03-26T11:57:05.410Z,49.38
2023-03-26T12:02:11.534Z,48.49
2023-03-26T12:07:17.443Z,48.17
2023-03-26T12:12:20.374Z,48.47
2023-03-26T12:17:34.741Z,48.36
2023-03-26T12:22:38.699Z,48.84
2023-03-26T12:27:50.541Z,48.87
2023-03-26T12:32:57.797Z,48.91
2023-03-26T12:38:14.818Z,49.63
2023-03-26T12:44:54.770Z,48.81
2023-03-26T12:48:53.816Z,48.55
2023-03-26T12:54:23.815Z,48.12
2023-03-26T13:00:09.397Z,48.63
2023-03-26T13:05:17.897Z,47.58
2023-03-26T13:10:50.809Z,47.44
2023-03-26T13:15:57.795Z,46.98
2023-03-26T13:21:11.312Z,46.92
2023-03-26T13:27:00.306Z,46.51
2023-03-26T13:32:24.105Z,46.04
2023-03-26T13:37:36.446Z,46.73
2023-03-26T13:43:04.636Z,47.27
2023-03-26T13:48:18.167Z,49.09
2023-03-26T13:53:27.495Z,49.64
2023-03-26T13:58:41.823Z,49.05
2023-03-26T14:04:00.264Z,49.03
2023-03-26T14:09:12.711Z,48.33
2023-03-26T14:14:23.545Z,47.79
2023-03-26T14:20:02.400Z,47.74
2023-03-26T14:25:39.218Z,46.89
2023-03-26T14:30:56.558Z,47.07
2023-03-26T14:36:14.979Z,47.43
2023-03-26T14:41:33.139Z,48.28
2023-03-26T14:46:40.970Z,48.17
2023-03-26T14:52:05.856Z,48.62
2023-03-26T14:57:33.180Z,49.28
2023-03-26T15:03:09.933Z,48.81
2023-03-26T15:08:40.629Z,48.48
2023-03-26T15:14:16.589Z,48.41
2023-03-26T15:19:41.786Z,47.96
2023-03-26T15:25:12.735Z,48.36
2023-03-26T15:30:30.611Z,48.91
2023-03-26T15:36:00.505Z,49.10
2023-03-26T15:41:05.475Z,48.94
2023-03-26T15:46:26.348Z,48.49
2023-03-26T15:51:59.005Z,46.91
2023-03-26T15:57:16.725Z,46.16
2023-03-26T16:03:16.345Z,46.89
2023-03-26T16:08:25.935Z,47.61
2023-03-26T16:13:30.802Z,48.56
2023-03-26T16:18:37.283Z,49.31
2023-03-26T16:23:47.566Z,49.87
2023-03-26T16:28:53.627Z,50.51
2023-03-26T16:34:09.287Z,51.17
2023-03-26T16:39:18.784Z,51.80
2023-03-26T16:44:37.956Z,52.23
2023-03-26T16:50:08.888Z,52.72
2023-03-26T16:55:39.371Z,53.53
2023-03-26T17:00:48.197Z,54.11
2023-03-26T17:06:02.203Z,54.68
2023-03-26T17:11:57.658Z,55.70
2023-03-26T17:17:36.897Z,56.58
2023-03-26T17:22:45.151Z,56.70
2023-03-26T17:28:28.642Z,57.59
2023-03-26T17:33:38.777Z,58.27
2023-03-26T17:38:40.605Z,58.30
2023-03-26T17:43:51.905Z,59.37
2023-03-26T17:49:06.832Z,60.15
2023-03-26T17:54:27.473Z,60.30
2023-03-26T17:59:29.387Z,60.47
2023-03-26T18:04:39.032Z,60.95
2023-03-26T18:10:18.723Z,61.17
2023-03-26T18:15:32.450Z,61.06
2023-03-26T18:20:37.160Z,61.29
2023-03-26T18:25:41.087Z,61.31
2023-03-26T18:30:48.425Z,61.72
2023-03-26T18:35:54.421Z,62.54
2023-03-26T18:40:56.540Z,61.45
2023-03-26T18:45:58.662Z,61.27
2023-03-26T18:51:05.032Z,61.98
2023-03-26T18:56:28.549Z,62.20
2023-03-26T19:01:34.181Z,61.85
2023-03-26T19:06:41.378Z,61.52
2023-03-26T19:11:45.316Z,61.88
2023-03-26T19:16:56.515Z,61.79
2023-03-26T19:21:59.647Z,61.68
2023-03-26T19:27:02.685Z,62.08
2023-03-26T19:32:29.488Z,62.31
2023-03-26T19:37:32.410Z,62.63
2023-03-26T19:42:43.100Z,62.92
2023-03-26T19:48:00.072Z,63.78
2023-03-26T19:53:22.456Z,63.99
2023-03-26T19:58:26.585Z,64.70
2023-03-26T20:03:36.954Z,66.40
2023-03-26T20:08:40.663Z,67.98
2023-03-26T20:13:42.528Z,69.66
2023-03-26T20:18:44.265Z,69.75
2023-03-26T20:23:46.138Z,69.64
2023-03-26T20:28:52.713Z,68.99
2023-03-26T20:33:56.536Z,69.28
2023-03-26T20:38:58.301Z,70.41
2023-03-26T20:44:00.085Z,70.16
2023-03-26T20:49:01.803Z,71.05
2023-03-26T20:54:05.274Z,72.18
2023-03-26T20:59:10.927Z,72.52
2023-03-26T21:04:14.608Z,72.90
2023-03-26T21:09:23.960Z,74.07
2023-03-26T21:14:41.188Z,75.00
2023-03-26T21:19:43.871Z,74.97
2023-03-26T21:25:03.506Z,75.11
2023-03-26T21:30:16.471Z,75.03
2023-03-26T21:35:19.105Z,74.28
2023-03-26T21:40:21.144Z,74.04
2023-03-26T21:45:43.918Z,74.94
2023-03-26T21:50:48.949Z,75.32
2023-03-26T21:56:17.548Z,76.33
2023-03-26T22:01:24.332Z,75.23
2023-03-26T22:06:37.102Z,75.71
2023-03-26T22:11:41.536Z,76.92
2023-03-26T22:16:43.307Z,76.98
2023-03-26T22:21:45.109Z,77.32
2023-03-26T22:26:47.643Z,76.97
2023-03-26T22:31:49.469Z,76.87
2023-03-26T22:36:52.233Z,76.32
2023-03-26T22:41:54.643Z,75.70
2023-03-26T22:46:57.031Z,75.19
2023-03-26T22:51:58.700Z,74.31
2023-03-26T22:57:00.713Z,74.89
2023-03-26T23:02:02.882Z,75.70
2023-03-26T23:07:05.905Z,75.36
2023-03-26T23:12:08.510Z,75.88
2023-03-26T23:17:14.740Z,76.77
2023-03-26T23:22:17.263Z,77.48
2023-03-26T23:27:22.467Z,77.79
2023-03-26T23:32:28.243Z,78.14
2023-03-26T23:37:35.026Z,78.22
2023-03-26T23:42:38.037Z,78.09
2023-03-26T23:47:42.894Z,77.56
2023-03-26T23:52:47.031Z,77.16
2023-03-26T23:57:48.987Z,76.86
